Henderson, Maryland
Current Conditions -  °F | °C
As of 7:58 PM on Friday 28 Nov 2014 (Local Time) from KDOV Reporting Station
Clear Clear  
Wind Chill: 30°   Ceiling: Unl
Heat Index: 30°   Visibility: 10mi
Dew Point: 19°   Wind: 2mph
Humidity: 63%   Direction: 240°WSW
Pressure: 30.27"   Gusts: NA
Location:  39.07°N, 75.77°W
Report Text: KDOV 290058Z AUTO 24002KT 10SM CLR M01/M07 A3027 RMK AO2 SLP254 T10121075
Loading
Personal Weather Stations






























Interactive Weather Map New forecast layout! Learn more

10-Day Weather Forecast

Advertisements
Track Severe Weather on mobile